Time;durP1;ratioP1;P1;durP2;ratioP2;P2;SDS_P1;SDS_P2;PMS_P1;PMS_P2;Temp;Humidity;BMP_temperature;BMP_pressure;BME280_temperature;BME280_humidity;BME280_pressure;Samples;Min_cycle;Max_cycle;Signal;HPM_P1;HPM_P2
2021/12/26 00:01:26;;;;;;;5.93;2.92;;;0.10;99.90;;;;;;4991072;28;20480;-59
2021/12/26 00:03:51;;;;;;;5.20;3.33;;;0.20;99.90;;;;;;4990784;28;20033;-59
2021/12/26 00:06:25;;;;;;;5.53;3.00;;;0.20;99.90;;;;;;4990926;28;20037;-59
2021/12/26 00:08:52;;;;;;;6.32;3.47;;;0.20;99.90;;;;;;4990772;28;20093;-57
2021/12/26 00:11:18;;;;;;;6.85;3.33;;;0.20;99.90;;;;;;4990424;28;20034;-54
2021/12/26 00:13:44;;;;;;;5.18;3.03;;;0.20;99.90;;;;;;4990595;28;20022;-58
2021/12/26 00:16:10;;;;;;;4.45;3.08;;;0.20;99.90;;;;;;4990795;28;20030;-57
2021/12/26 00:18:41;;;;;;;5.22;3.35;;;0.30;99.90;;;;;;4989562;28;20041;-56
2021/12/26 00:21:06;;;;;;;5.15;3.03;;;0.20;99.90;;;;;;4990744;28;20022;-55
2021/12/26 00:23:32;;;;;;;4.82;2.72;;;0.30;99.90;;;;;;4990309;28;20057;-58
2021/12/26 00:25:58;;;;;;;5.63;3.05;;;0.30;99.90;;;;;;4990445;28;20034;-56
2021/12/26 00:28:23;;;;;;;5.72;3.05;;;0.30;99.90;;;;;;4990935;28;20037;-56
2021/12/26 00:30:49;;;;;;;4.85;2.88;;;0.30;99.90;;;;;;4990581;28;20524;-55
2021/12/26 00:33:15;;;;;;;5.68;3.20;;;0.40;99.90;;;;;;4990708;28;20014;-53
2021/12/26 00:35:41;;;;;;;5.78;3.22;;;0.40;99.90;;;;;;4990473;28;20037;-58
2021/12/26 00:38:07;;;;;;;4.82;2.85;;;0.40;99.90;;;;;;4993304;28;20555;-58
2021/12/26 00:40:32;;;;;;;8.20;3.13;;;0.40;99.90;;;;;;4994028;28;20034;-58
2021/12/26 00:42:58;;;;;;;4.43;3.03;;;0.40;99.90;;;;;;4994125;28;20041;-57
2021/12/26 00:45:25;;;;;;;4.03;2.60;;;0.40;99.90;;;;;;4993927;28;20385;-56
2021/12/26 00:47:50;;;;;;;4.90;2.83;;;0.40;99.90;;;;;;4993680;28;20038;-58
2021/12/26 00:50:21;;;;;;;5.38;3.03;;;0.50;99.90;;;;;;4993801;28;20026;-54
2021/12/26 00:52:46;;;;;;;6.63;2.95;;;0.50;99.90;;;;;;4995005;28;20022;-57
2021/12/26 00:55:14;;;;;;;4.63;3.08;;;0.50;99.90;;;;;;4993650;28;20400;-52
2021/12/26 00:57:40;;;;;;;5.88;3.00;;;0.50;99.90;;;;;;4994030;28;20065;-57
2021/12/26 01:00:09;;;;;;;4.80;3.25;;;0.60;99.90;;;;;;4993708;28;20468;-57
2021/12/26 01:02:35;;;;;;;6.47;3.15;;;0.50;99.90;;;;;;4993783;28;20030;-57
2021/12/26 01:05:01;;;;;;;4.68;3.33;;;0.50;99.90;;;;;;4993243;28;20084;-57
2021/12/26 01:09:58;;;;;;;4.85;3.03;;;0.60;99.90;;;;;;4993487;28;20033;-58
2021/12/26 01:12:24;;;;;;;5.32;2.92;;;0.60;99.90;;;;;;4993628;28;20099;-57
2021/12/26 01:14:57;;;;;;;4.97;3.28;;;0.60;99.90;;;;;;4993522;28;20035;-58
2021/12/26 01:17:24;;;;;;;5.30;2.72;;;0.60;99.90;;;;;;4993187;28;20030;-56
2021/12/26 01:19:52;;;;;;;4.68;3.00;;;0.60;99.90;;;;;;4993612;28;20034;-55
2021/12/26 01:22:19;;;;;;;5.93;3.42;;;0.60;99.90;;;;;;4993735;28;20137;-54
2021/12/26 01:24:48;;;;;;;6.03;3.28;;;0.60;99.90;;;;;;4992821;28;20026;-56
2021/12/26 01:27:14;;;;;;;5.70;3.20;;;0.60;99.90;;;;;;4993095;28;20034;-58
2021/12/26 01:29:40;;;;;;;5.28;3.47;;;0.60;99.90;;;;;;4993290;28;20109;-57
2021/12/26 01:32:06;;;;;;;8.85;3.65;;;0.60;99.90;;;;;;4993151;28;20154;-57
2021/12/26 01:34:33;;;;;;;6.32;3.25;;;0.60;99.90;;;;;;4992973;28;20527;-57
2021/12/26 01:36:59;;;;;;;5.90;2.95;;;0.70;99.90;;;;;;4992882;28;20451;-56
2021/12/26 01:39:25;;;;;;;5.32;3.30;;;0.60;99.90;;;;;;4992965;28;20026;-58
2021/12/26 01:41:52;;;;;;;6.85;3.60;;;0.60;99.90;;;;;;4989734;28;20387;-57
2021/12/26 01:44:18;;;;;;;5.90;3.95;;;0.70;99.90;;;;;;4992817;28;20014;-57
2021/12/26 01:46:46;;;;;;;5.28;3.60;;;0.70;99.90;;;;;;4992789;28;20026;-55
2021/12/26 01:49:16;;;;;;;4.55;3.17;;;0.70;99.90;;;;;;4992887;28;20022;-55
2021/12/26 01:51:43;;;;;;;6.53;3.90;;;0.70;99.90;;;;;;4992767;28;20026;-57
2021/12/26 01:54:10;;;;;;;6.78;3.72;;;0.70;99.90;;;;;;4992389;28;20101;-55
2021/12/26 01:56:39;;;;;;;6.45;3.95;;;0.80;99.90;;;;;;4992589;28;20035;-54
2021/12/26 01:59:08;;;;;;;6.00;3.78;;;0.80;99.90;;;;;;4992737;28;20439;-55
2021/12/26 02:01:33;;;;;;;6.40;3.25;;;0.80;99.90;;;;;;4992560;28;20113;-57
2021/12/26 02:04:01;;;;;;;6.03;3.58;;;0.80;99.90;;;;;;4992465;28;20126;-57
2021/12/26 02:06:27;;;;;;;6.22;3.78;;;0.80;99.90;;;;;;4992697;28;20034;-58
2021/12/26 02:08:52;;;;;;;5.35;3.45;;;0.80;99.90;;;;;;4992272;28;20389;-55
2021/12/26 02:11:18;;;;;;;5.05;3.67;;;0.80;99.90;;;;;;4992261;28;20065;-58
2021/12/26 02:13:44;;;;;;;7.22;3.75;;;0.80;99.90;;;;;;4992315;28;20400;-55
2021/12/26 02:16:12;;;;;;;6.32;3.63;;;0.80;99.90;;;;;;4992440;28;20038;-57
2021/12/26 02:18:38;;;;;;;6.32;3.67;;;0.90;99.90;;;;;;4992605;28;20117;-58
2021/12/26 02:23:43;;;;;;;7.25;4.13;;;0.90;99.90;;;;;;4991835;28;20045;-58
2021/12/26 02:28:39;;;;;;;7.32;3.90;;;0.90;99.90;;;;;;4992412;28;20037;-58
2021/12/26 02:31:06;;;;;;;7.80;3.95;;;0.90;99.90;;;;;;4991996;28;20014;-58
2021/12/26 02:33:32;;;;;;;7.68;4.15;;;0.90;99.90;;;;;;4991888;28;20065;-58
2021/12/26 02:35:57;;;;;;;8.20;4.50;;;0.90;99.90;;;;;;4991809;28;20058;-57
2021/12/26 02:38:24;;;;;;;7.22;3.78;;;0.90;99.90;;;;;;4991667;28;20496;-58
2021/12/26 02:40:52;;;;;;;7.28;4.47;;;1.00;99.90;;;;;;4991837;28;20069;-55
2021/12/26 02:43:20;;;;;;;10.52;4.05;;;0.90;99.90;;;;;;4991685;28;20128;-56
2021/12/26 02:45:46;;;;;;;6.47;4.22;;;0.90;99.90;;;;;;4991833;28;20026;-58
2021/12/26 02:48:12;;;;;;;7.78;4.35;;;0.90;99.90;;;;;;4991666;28;20022;-57
2021/12/26 02:50:39;;;;;;;8.43;4.63;;;0.90;99.90;;;;;;4991442;28;20097;-56
2021/12/26 02:53:07;;;;;;;6.93;4.38;;;1.00;99.90;;;;;;4991231;28;20109;-57
2021/12/26 02:55:34;;;;;;;6.15;4.43;;;1.00;99.90;;;;;;4991505;28;20022;-57
2021/12/26 02:58:07;;;;;;;7.95;5.22;;;1.00;99.90;;;;;;4991635;28;20023;-57
2021/12/26 03:00:40;;;;;;;7.15;4.55;;;0.90;99.90;;;;;;4991068;28;20085;-57
2021/12/26 03:03:06;;;;;;;6.38;4.18;;;1.00;99.90;;;;;;4991339;28;20027;-58
2021/12/26 03:05:36;;;;;;;6.93;4.20;;;1.00;99.90;;;;;;4990303;28;20084;-54
2021/12/26 03:08:02;;;;;;;6.35;3.83;;;0.90;99.90;;;;;;4991716;28;20411;-58
2021/12/26 03:10:28;;;;;;;6.20;4.05;;;0.90;99.90;;;;;;4991251;28;20549;-58
2021/12/26 03:13:05;;;;;;;7.05;4.53;;;1.00;99.90;;;;;;4991356;28;20034;-57
2021/12/26 03:15:32;;;;;;;10.10;5.28;;;0.90;99.90;;;;;;4991584;28;20054;-57
2021/12/26 03:17:59;;;;;;;6.50;4.78;;;1.00;99.90;;;;;;4991180;28;20057;-58
2021/12/26 03:20:27;;;;;;;8.40;4.53;;;1.00;99.90;;;;;;4991461;28;20065;-55
2021/12/26 03:22:53;;;;;;;9.68;4.72;;;1.00;99.90;;;;;;4990939;28;20026;-54
2021/12/26 03:25:22;;;;;;;5.78;3.97;;;1.00;99.90;;;;;;4991006;28;20043;-59
2021/12/26 03:27:49;;;;;;;8.00;4.82;;;1.00;99.90;;;;;;4991186;28;20070;-59
2021/12/26 03:30:18;;;;;;;12.85;5.53;;;1.00;99.90;;;;;;4991222;28;20031;-55
2021/12/26 03:32:44;;;;;;;8.05;4.35;;;1.00;99.90;;;;;;4991320;28;20045;-58
2021/12/26 03:35:10;;;;;;;9.05;4.88;;;1.10;99.90;;;;;;4991095;28;20124;-56
2021/12/26 03:37:37;;;;;;;9.48;4.53;;;1.00;99.90;;;;;;4991337;28;20034;-59
2021/12/26 03:40:04;;;;;;;9.57;5.03;;;1.00;99.90;;;;;;4990832;28;20030;-54
2021/12/26 03:42:31;;;;;;;9.70;4.90;;;1.00;99.90;;;;;;4991013;28;20560;-57
2021/12/26 03:44:57;;;;;;;6.18;4.30;;;1.00;99.90;;;;;;4990930;28;20476;-59
2021/12/26 03:47:22;;;;;;;8.15;4.78;;;1.00;99.90;;;;;;4990910;28;20074;-59
2021/12/26 03:49:49;;;;;;;6.00;4.35;;;1.00;99.90;;;;;;4991098;28;20027;-58
2021/12/26 03:52:15;;;;;;;9.57;5.43;;;1.00;99.90;;;;;;4990831;28;20444;-58
2021/12/26 03:54:41;;;;;;;7.72;5.15;;;1.00;99.90;;;;;;4990857;28;20114;-55
2021/12/26 03:57:07;;;;;;;8.57;5.38;;;1.00;99.90;;;;;;4990625;28;20184;-58
2021/12/26 03:59:33;;;;;;;7.13;4.93;;;1.00;99.90;;;;;;4991038;28;20018;-58
2021/12/26 04:01:59;;;;;;;7.63;5.10;;;1.00;99.90;;;;;;4991050;28;20485;-58
2021/12/26 04:04:25;;;;;;;8.25;5.22;;;1.00;99.90;;;;;;4990756;28;20030;-58
2021/12/26 04:06:51;;;;;;;10.07;5.28;;;1.10;99.90;;;;;;4990967;28;20031;-57
2021/12/26 04:09:17;;;;;;;8.90;5.43;;;1.00;99.90;;;;;;4990995;28;20041;-57
2021/12/26 04:11:45;;;;;;;10.60;5.28;;;1.00;99.90;;;;;;4991558;28;20026;-56
2021/12/26 04:14:12;;;;;;;9.75;5.00;;;1.10;99.90;;;;;;4994215;28;20038;-59
2021/12/26 04:16:37;;;;;;;7.78;4.72;;;1.10;99.90;;;;;;4994622;28;20032;-57
2021/12/26 04:19:04;;;;;;;9.05;6.03;;;1.00;99.90;;;;;;4994370;28;20030;-56
2021/12/26 04:21:30;;;;;;;8.52;5.72;;;1.10;99.90;;;;;;4994623;28;20037;-58
2021/12/26 04:23:56;;;;;;;9.88;5.53;;;1.10;99.90;;;;;;4994358;28;20084;-58
2021/12/26 04:26:22;;;;;;;9.68;5.80;;;1.00;99.90;;;;;;4994058;28;20038;-56
2021/12/26 04:28:47;;;;;;;8.15;5.45;;;1.10;99.90;;;;;;4994369;28;20034;-58
2021/12/26 04:31:13;;;;;;;8.13;5.25;;;1.10;99.90;;;;;;4994304;28;20103;-58
2021/12/26 04:33:39;;;;;;;11.75;5.93;;;1.10;99.90;;;;;;4994160;28;20440;-59
2021/12/26 04:36:05;;;;;;;8.57;5.22;;;1.10;99.90;;;;;;4994196;28;20034;-56
2021/12/26 04:38:31;;;;;;;8.82;5.57;;;1.10;99.90;;;;;;4994292;28;20101;-58
2021/12/26 04:40:57;;;;;;;8.77;5.70;;;1.10;99.90;;;;;;4994005;28;20520;-59
2021/12/26 04:43:24;;;;;;;7.57;4.75;;;1.10;99.90;;;;;;4993903;28;20554;-58
2021/12/26 04:45:50;;;;;;;9.25;5.18;;;1.10;99.90;;;;;;4994258;28;20081;-57
2021/12/26 04:48:16;;;;;;;9.82;5.82;;;1.10;99.90;;;;;;4994140;28;20038;-57
2021/12/26 04:50:42;;;;;;;8.25;5.50;;;1.10;99.90;;;;;;4994048;28;20102;-57
2021/12/26 04:53:08;;;;;;;8.90;5.70;;;1.10;99.90;;;;;;4993453;28;20033;-57
2021/12/26 04:55:34;;;;;;;9.85;5.50;;;1.10;99.90;;;;;;4993726;28;20033;-59
2021/12/26 04:58:00;;;;;;;8.63;5.25;;;1.20;99.90;;;;;;4994130;28;20105;-59
2021/12/26 05:00:28;;;;;;;10.65;6.28;;;1.10;99.90;;;;;;4993717;28;20084;-55
2021/12/26 05:02:55;;;;;;;8.95;5.95;;;1.10;99.90;;;;;;4993671;28;20035;-58
2021/12/26 05:05:21;;;;;;;8.85;5.75;;;1.10;99.90;;;;;;4993725;28;20036;-57
2021/12/26 05:07:48;;;;;;;8.38;5.00;;;1.10;99.90;;;;;;4993491;28;20103;-56
2021/12/26 05:10:15;;;;;;;11.80;6.20;;;1.10;99.90;;;;;;4993497;28;20387;-57
2021/12/26 05:12:41;;;;;;;8.73;6.15;;;1.10;99.90;;;;;;4993166;28;20022;-56
2021/12/26 05:15:09;;;;;;;9.43;5.57;;;1.10;99.90;;;;;;4993580;28;20022;-58
2021/12/26 05:17:34;;;;;;;9.70;5.43;;;1.10;99.90;;;;;;4993656;28;20034;-59
2021/12/26 05:20:00;;;;;;;8.55;5.78;;;1.10;99.90;;;;;;4993379;28;20056;-59
2021/12/26 05:22:26;;;;;;;9.90;6.00;;;1.10;99.90;;;;;;4992832;28;20488;-57
2021/12/26 05:24:51;;;;;;;10.25;6.43;;;1.10;99.90;;;;;;4993220;28;20396;-58
2021/12/26 05:27:17;;;;;;;8.68;5.55;;;1.10;99.90;;;;;;4992926;28;20045;-57
2021/12/26 05:29:43;;;;;;;9.82;5.75;;;1.10;99.90;;;;;;4993370;28;20025;-57
2021/12/26 05:32:09;;;;;;;9.02;5.68;;;1.10;99.90;;;;;;4993280;28;20081;-57
2021/12/26 05:34:35;;;;;;;10.18;6.05;;;1.20;99.90;;;;;;4992851;28;20373;-57
2021/12/26 05:37:00;;;;;;;8.88;5.50;;;1.10;99.90;;;;;;4992805;28;20081;-56
2021/12/26 05:39:26;;;;;;;9.98;6.82;;;1.10;99.90;;;;;;4992954;28;20022;-59
2021/12/26 05:41:52;;;;;;;10.70;6.43;;;1.10;99.90;;;;;;4993115;28;20108;-55
2021/12/26 05:44:17;;;;;;;10.25;6.45;;;1.10;99.90;;;;;;4992849;28;20089;-55
2021/12/26 05:46:45;;;;;;;10.18;6.38;;;1.10;99.90;;;;;;4992731;28;20101;-59
2021/12/26 05:49:11;;;;;;;11.52;6.70;;;1.10;99.90;;;;;;4992860;28;20026;-56
2021/12/26 05:51:36;;;;;;;9.82;6.03;;;1.10;99.90;;;;;;4992961;28;20022;-57
2021/12/26 05:54:02;;;;;;;11.43;6.78;;;1.10;99.90;;;;;;4992600;28;20025;-58
2021/12/26 05:56:28;;;;;;;9.55;6.22;;;1.10;99.90;;;;;;4992462;28;20030;-56
2021/12/26 05:58:53;;;;;;;11.50;6.68;;;1.10;99.90;;;;;;4992886;28;20066;-56
2021/12/26 06:01:19;;;;;;;10.80;6.47;;;1.10;99.90;;;;;;4992469;28;20034;-57
2021/12/26 06:03:44;;;;;;;10.73;6.60;;;1.10;99.90;;;;;;4992457;28;20030;-57
2021/12/26 06:06:10;;;;;;;14.30;7.35;;;1.10;99.90;;;;;;4992597;28;20510;-59
2021/12/26 06:08:36;;;;;;;10.32;6.85;;;1.10;99.90;;;;;;4992491;28;20708;-57
2021/12/26 06:11:01;;;;;;;12.02;6.78;;;1.10;99.90;;;;;;4992563;28;20483;-58
2021/12/26 06:13:29;;;;;;;11.13;7.18;;;1.10;99.90;;;;;;4992053;28;20105;-58
2021/12/26 06:15:55;;;;;;;10.80;6.90;;;1.10;99.90;;;;;;4992406;28;20034;-55
2021/12/26 06:18:21;;;;;;;12.55;7.60;;;1.10;99.90;;;;;;4992651;28;20040;-56
2021/12/26 06:20:46;;;;;;;10.63;6.82;;;1.10;99.90;;;;;;4992505;28;20465;-58
2021/12/26 06:23:12;;;;;;;15.32;7.28;;;1.20;99.90;;;;;;4991951;28;20069;-58
2021/12/26 06:25:38;;;;;;;10.95;6.07;;;1.10;99.90;;;;;;4991515;28;20038;-56
2021/12/26 06:28:04;;;;;;;10.68;6.43;;;1.20;99.90;;;;;;4992287;28;20049;-57
2021/12/26 06:30:32;;;;;;;10.52;7.15;;;1.20;99.90;;;;;;4992151;28;20049;-58
2021/12/26 06:32:57;;;;;;;11.10;7.22;;;1.20;99.90;;;;;;4991937;28;20085;-58
2021/12/26 06:35:23;;;;;;;12.23;7.38;;;1.10;99.90;;;;;;4991190;28;20034;-58
2021/12/26 06:37:49;;;;;;;11.60;7.35;;;1.10;99.90;;;;;;4991936;28;20467;-58
2021/12/26 06:40:15;;;;;;;12.13;6.97;;;1.10;99.90;;;;;;4990547;28;20065;-58
2021/12/26 06:42:43;;;;;;;13.07;7.40;;;1.10;99.90;;;;;;4991913;28;20055;-54
2021/12/26 06:45:11;;;;;;;13.38;7.63;;;1.10;99.90;;;;;;4991995;28;20034;-54
2021/12/26 06:47:37;;;;;;;13.20;7.50;;;1.10;99.90;;;;;;4991634;28;20034;-58
2021/12/26 06:50:05;;;;;;;12.77;7.90;;;1.20;99.90;;;;;;4992113;28;20041;-59
2021/12/26 06:52:30;;;;;;;13.48;7.95;;;1.20;99.90;;;;;;4991533;28;20141;-57
2021/12/26 06:54:56;;;;;;;13.73;7.32;;;1.20;99.90;;;;;;4992683;28;20495;-56
2021/12/26 06:57:22;;;;;;;11.38;6.90;;;1.20;99.90;;;;;;4991320;28;20039;-58
2021/12/26 06:59:47;;;;;;;13.73;7.57;;;1.20;99.90;;;;;;4991688;28;20061;-55
2021/12/26 07:02:13;;;;;;;11.13;6.97;;;1.20;99.90;;;;;;4991570;28;20038;-58
2021/12/26 07:04:38;;;;;;;12.43;6.38;;;1.20;99.90;;;;;;4991239;28;20027;-57
2021/12/26 07:07:04;;;;;;;12.05;8.13;;;1.20;99.90;;;;;;4991368;28;20436;-61
2021/12/26 07:09:30;;;;;;;12.02;7.13;;;1.20;99.90;;;;;;4991803;28;20447;-59
2021/12/26 07:11:55;;;;;;;11.90;7.30;;;1.20;99.90;;;;;;4991358;28;20034;-59
2021/12/26 07:14:21;;;;;;;10.73;6.93;;;1.20;99.90;;;;;;4991277;28;20030;-57
2021/12/26 07:16:47;;;;;;;12.95;7.93;;;1.20;99.90;;;;;;4991314;28;20030;-54
2021/12/26 07:19:13;;;;;;;13.07;8.05;;;1.20;99.90;;;;;;4991234;28;20034;-56
2021/12/26 07:21:40;;;;;;;16.00;8.32;;;1.20;99.90;;;;;;4991359;28;20041;-55
2021/12/26 07:24:05;;;;;;;13.95;7.63;;;1.20;99.90;;;;;;4991187;28;20060;-53
2021/12/26 07:26:31;;;;;;;13.10;7.55;;;1.20;99.90;;;;;;4990924;28;20107;-58
2021/12/26 07:28:57;;;;;;;11.90;6.72;;;1.20;99.90;;;;;;4991055;28;20069;-59
2021/12/26 07:31:23;;;;;;;11.63;7.05;;;1.30;99.90;;;;;;4991402;28;20066;-58
2021/12/26 07:33:48;;;;;;;11.85;7.00;;;1.30;99.90;;;;;;4990550;28;20034;-58
2021/12/26 07:36:14;;;;;;;14.23;7.60;;;1.20;99.90;;;;;;4991103;28;20038;-58
2021/12/26 07:38:39;;;;;;;11.45;7.20;;;1.30;99.90;;;;;;4991076;28;20085;-57
2021/12/26 07:41:05;;;;;;;13.35;7.60;;;1.30;99.90;;;;;;4990849;28;20428;-55
2021/12/26 07:43:31;;;;;;;11.77;7.35;;;1.20;99.90;;;;;;4989493;28;20034;-58
2021/12/26 07:45:56;;;;;;;15.20;7.45;;;1.30;99.90;;;;;;4992426;28;20065;-59
2021/12/26 07:48:22;;;;;;;12.75;7.78;;;1.30;99.90;;;;;;4995365;28;20501;-54
2021/12/26 07:50:47;;;;;;;9.55;6.07;;;1.30;99.90;;;;;;4995164;28;20531;-58
2021/12/26 07:53:13;;;;;;;12.88;7.50;;;1.30;99.90;;;;;;4994556;28;20089;-55
2021/12/26 07:55:39;;;;;;;12.20;7.35;;;1.30;99.90;;;;;;4994718;28;20408;-55
2021/12/26 07:58:06;;;;;;;10.13;7.00;;;1.30;99.90;;;;;;4995050;28;20030;-57
2021/12/26 08:00:32;;;;;;;11.70;7.50;;;1.30;99.90;;;;;;4995202;28;20439;-59
2021/12/26 08:02:58;;;;;;;10.27;6.63;;;1.40;99.90;;;;;;4994666;28;20030;-55
2021/12/26 08:05:25;;;;;;;13.18;7.75;;;1.30;99.90;;;;;;4994908;28;20503;-57
2021/12/26 08:07:50;;;;;;;14.77;8.10;;;1.40;99.90;;;;;;4994548;28;20523;-56
2021/12/26 08:10:16;;;;;;;12.50;7.63;;;1.40;99.90;;;;;;4994751;28;20031;-56
2021/12/26 08:12:42;;;;;;;15.13;9.05;;;1.40;99.90;;;;;;4994471;28;20030;-57
2021/12/26 08:15:08;;;;;;;12.27;7.18;;;1.40;99.90;;;;;;4994876;28;20030;-58
2021/12/26 08:17:35;;;;;;;13.45;8.30;;;1.40;99.90;;;;;;4994749;28;20388;-57
2021/12/26 08:20:03;;;;;;;18.45;7.57;;;1.40;99.90;;;;;;4994578;28;20104;-56
2021/12/26 08:22:28;;;;;;;10.73;6.85;;;1.50;99.90;;;;;;4994131;28;20188;-57
2021/12/26 08:24:54;;;;;;;14.48;7.25;;;1.50;99.90;;;;;;4994333;28;20582;-59
2021/12/26 08:27:20;;;;;;;11.45;7.93;;;1.50;99.90;;;;;;4994042;28;20030;-58
2021/12/26 08:29:47;;;;;;;13.63;8.75;;;1.50;99.90;;;;;;4994444;28;20077;-57
2021/12/26 08:32:14;;;;;;;11.52;7.20;;;1.50;99.90;;;;;;4994773;28;20026;-58
2021/12/26 08:34:41;;;;;;;11.82;7.28;;;1.60;99.90;;;;;;4993973;28;20054;-58
2021/12/26 08:37:06;;;;;;;10.48;7.32;;;1.60;99.90;;;;;;4994057;28;20035;-59
2021/12/26 08:39:37;;;;;;;11.05;6.72;;;1.60;99.90;;;;;;4994047;28;20077;-58
2021/12/26 08:42:03;;;;;;;11.65;7.32;;;1.70;99.90;;;;;;4994076;28;20061;-56
2021/12/26 08:44:29;;;;;;;11.35;7.28;;;1.70;99.90;;;;;;4994007;28;20053;-57
2021/12/26 08:46:55;;;;;;;13.27;7.22;;;1.70;99.90;;;;;;4994088;28;20061;-59
2021/12/26 08:49:22;;;;;;;13.25;7.60;;;1.70;99.90;;;;;;4994264;28;20057;-56
2021/12/26 08:51:47;;;;;;;14.98;7.78;;;1.70;99.90;;;;;;4993910;28;20447;-58
2021/12/26 08:54:14;;;;;;;11.57;6.90;;;1.70;99.90;;;;;;4993821;28;20026;-56
2021/12/26 08:56:40;;;;;;;10.15;6.75;;;1.70;99.90;;;;;;4993570;28;20073;-58
2021/12/26 08:59:06;;;;;;;12.02;7.90;;;1.70;99.90;;;;;;4993285;28;20101;-58
2021/12/26 09:01:32;;;;;;;11.07;7.47;;;1.70;99.90;;;;;;4993996;28;20061;-57
2021/12/26 09:03:58;;;;;;;13.80;7.45;;;1.80;99.90;;;;;;4993637;28;20045;-58
2021/12/26 09:06:24;;;;;;;13.15;7.30;;;1.80;99.90;;;;;;4993953;28;20034;-57
2021/12/26 09:08:50;;;;;;;12.30;7.78;;;1.80;99.90;;;;;;4993685;28;20842;-58
2021/12/26 09:11:16;;;;;;;11.18;7.10;;;1.80;99.90;;;;;;4993479;28;20037;-58
2021/12/26 09:13:44;;;;;;;11.05;6.68;;;1.80;99.90;;;;;;4993286;28;20023;-59
2021/12/26 09:16:10;;;;;;;11.85;7.85;;;1.90;99.90;;;;;;4993629;28;20037;-58
2021/12/26 09:18:35;;;;;;;14.98;9.40;;;1.90;99.90;;;;;;4993471;28;20034;-58
2021/12/26 09:21:01;;;;;;;166.85;85.85;;;1.90;99.90;;;;;;4993689;28;20109;-58
2021/12/26 09:23:27;;;;;;;47.25;29.70;;;2.00;99.90;;;;;;4993218;28;20400;-60
2021/12/26 09:25:52;;;;;;;13.88;8.82;;;1.90;99.90;;;;;;4993187;28;20483;-58
2021/12/26 09:28:18;;;;;;;17.08;11.52;;;2.00;99.90;;;;;;4993359;28;20484;-58
2021/12/26 09:30:43;;;;;;;13.18;8.55;;;2.00;99.90;;;;;;4993347;28;20030;-55
2021/12/26 09:33:09;;;;;;;14.50;10.15;;;2.00;99.90;;;;;;4992768;28;20031;-60
2021/12/26 09:35:35;;;;;;;17.50;11.02;;;2.00;99.90;;;;;;4993028;28;20049;-59
2021/12/26 09:38:01;;;;;;;11.35;7.43;;;2.10;99.90;;;;;;4993227;28;20053;-59
2021/12/26 09:40:27;;;;;;;12.77;8.80;;;2.20;99.90;;;;;;4992989;28;20101;-58
2021/12/26 09:42:53;;;;;;;13.90;8.25;;;2.30;99.90;;;;;;4993111;28;20030;-54
2021/12/26 09:45:19;;;;;;;16.08;9.98;;;2.30;99.90;;;;;;4993186;28;20152;-58
2021/12/26 09:47:49;;;;;;;13.25;7.82;;;2.30;99.90;;;;;;4992763;28;20444;-58
2021/12/26 09:50:17;;;;;;;15.38;10.35;;;2.30;99.90;;;;;;4993194;28;20480;-56
2021/12/26 09:52:46;;;;;;;14.00;8.70;;;2.40;99.90;;;;;;4992702;28;20538;-56
2021/12/26 09:55:12;;;;;;;15.10;8.45;;;2.50;99.90;;;;;;4992449;28;20042;-59
2021/12/26 09:57:38;;;;;;;12.52;7.10;;;2.50;99.90;;;;;;4992742;28;20026;-59
2021/12/26 10:00:21;;;;;;;15.23;8.82;;;2.50;99.90;;;;;;4992771;28;20033;-57
2021/12/26 10:02:47;;;;;;;17.13;9.48;;;2.40;99.90;;;;;;4992634;28;20509;-58
2021/12/26 10:05:13;;;;;;;14.85;8.20;;;2.40;99.90;;;;;;4992722;28;20050;-57
2021/12/26 10:07:38;;;;;;;14.80;9.25;;;2.30;99.90;;;;;;4992248;28;20048;-58
2021/12/26 10:10:07;;;;;;;17.05;9.77;;;2.30;99.90;;;;;;4991923;28;20045;-58
2021/12/26 10:12:40;;;;;;;13.85;9.30;;;2.20;99.90;;;;;;4992429;28;20027;-58
2021/12/26 10:15:07;;;;;;;14.82;9.57;;;2.10;99.90;;;;;;4992609;28;20049;-56
2021/12/26 10:17:32;;;;;;;16.00;10.07;;;2.00;99.90;;;;;;4992260;28;20623;-57
2021/12/26 10:20:10;;;;;;;16.70;9.95;;;2.00;99.90;;;;;;4992539;28;20050;-57
2021/12/26 10:22:36;;;;;;;14.57;9.00;;;1.90;99.90;;;;;;4992382;28;20109;-57
2021/12/26 10:25:14;;;;;;;18.70;11.38;;;2.00;99.90;;;;;;4991544;28;20042;-54
2021/12/26 10:27:41;;;;;;;14.40;8.82;;;2.00;99.90;;;;;;4972795;28;20058;-58
2021/12/26 10:30:11;;;;;;;17.48;10.27;;;2.00;99.90;;;;;;4973034;28;20428;-54
2021/12/26 10:32:38;;;;;;;16.10;9.93;;;2.00;99.90;;;;;;4989820;28;20057;-59
2021/12/26 10:35:10;;;;;;;18.83;10.82;;;2.00;99.90;;;;;;4991941;28;20029;-55
2021/12/26 10:37:37;;;;;;;18.60;10.60;;;2.00;99.90;;;;;;4992164;28;20060;-54
2021/12/26 10:40:10;;;;;;;16.20;9.40;;;2.00;99.90;;;;;;4990839;28;20379;-59
2021/12/26 10:42:48;;;;;;;20.60;10.60;;;2.00;99.90;;;;;;4992092;28;20105;-58
2021/12/26 10:45:16;;;;;;;16.00;9.90;;;2.00;99.90;;;;;;4992327;28;20026;-56
2021/12/26 10:47:45;;;;;;;18.25;10.60;;;2.10;99.90;;;;;;4991618;28;20027;-57
2021/12/26 10:50:18;;;;;;;14.57;9.25;;;2.20;99.90;;;;;;4991763;28;20420;-58
2021/12/26 10:52:52;;;;;;;19.40;11.57;;;2.20;99.90;;;;;;4991728;28;20181;-60
2021/12/26 10:55:26;;;;;;;;;;;2.30;99.90;;;;;;4991676;28;20022;-59
2021/12/26 10:57:52;;;;;;;17.02;10.18;;;2.30;99.90;;;;;;4991478;28;19909;-57
2021/12/26 11:00:20;;;;;;;14.30;9.00;;;2.30;99.90;;;;;;4991552;28;20027;-60
2021/12/26 11:03:00;;;;;;;16.17;9.80;;;2.40;99.90;;;;;;4991420;28;20053;-58
2021/12/26 11:05:31;;;;;;;15.77;9.57;;;2.50;99.90;;;;;;4991709;28;20101;-57
2021/12/26 11:08:03;;;;;;;17.13;10.10;;;2.50;99.90;;;;;;4991440;28;20406;-58
2021/12/26 11:10:50;;;;;;;20.15;10.45;;;2.50;99.90;;;;;;4991083;28;20037;-55
2021/12/26 11:13:21;;;;;;;16.73;9.77;;;2.60;99.90;;;;;;4991302;28;20403;-57
2021/12/26 11:15:48;;;;;;;16.73;9.23;;;2.60;99.90;;;;;;4991550;28;20165;-59
2021/12/26 11:18:16;;;;;;;18.85;10.10;;;2.60;99.90;;;;;;4991464;28;20065;-58
2021/12/26 11:20:47;;;;;;;17.15;9.77;;;2.70;99.90;;;;;;4990827;28;20032;-56
2021/12/26 11:23:18;;;;;;;14.95;9.07;;;2.80;99.90;;;;;;4990803;28;20030;-59
2021/12/26 11:25:53;;;;;;;18.55;10.07;;;2.90;99.90;;;;;;4991202;28;20495;-58
2021/12/26 11:28:26;;;;;;;18.05;9.60;;;2.90;99.90;;;;;;4991281;28;20059;-55
2021/12/26 11:30:57;;;;;;;16.15;9.98;;;2.90;99.90;;;;;;4991494;28;20027;-56
2021/12/26 11:33:23;;;;;;;18.70;9.38;;;2.90;99.90;;;;;;4991188;28;20038;-55
2021/12/26 11:35:50;;;;;;;15.57;9.43;;;2.90;99.90;;;;;;4990988;28;20027;-56
2021/12/26 11:38:19;;;;;;;16.73;10.10;;;3.00;99.90;;;;;;4991061;28;20108;-57
2021/12/26 11:40:49;;;;;;;18.52;10.45;;;2.90;99.90;;;;;;4991085;28;20059;-57
2021/12/26 11:43:33;;;;;;;14.80;9.18;;;3.00;99.90;;;;;;4991002;28;20050;-57
2021/12/26 11:46:46;;;;;;;15.23;9.25;;;3.10;99.90;;;;;;4991458;28;20038;-58
2021/12/26 11:50:01;;;;;;;15.30;9.07;;;3.20;99.90;;;;;;4981137;28;20045;-59
2021/12/26 11:53:04;;;;;;;17.85;8.25;;;3.20;99.90;;;;;;4991323;28;20034;-58
2021/12/26 11:55:48;;;;;;;14.10;8.02;;;3.30;99.90;;;;;;4990956;28;20038;-58
2021/12/26 11:58:35;;;;;;;15.38;8.95;;;3.30;99.90;;;;;;4990802;28;20416;-56
2021/12/26 12:01:02;;;;;;;13.75;8.55;;;3.30;99.90;;;;;;4991172;28;20030;-58
2021/12/26 12:03:31;;;;;;;16.48;9.60;;;3.30;99.90;;;;;;4990486;28;20034;-58
2021/12/26 12:05:58;;;;;;;14.65;9.50;;;3.20;99.90;;;;;;4990999;28;20050;-56
2021/12/26 12:08:23;;;;;;;13.40;7.80;;;3.20;99.90;;;;;;4991148;28;20034;-58
2021/12/26 12:10:55;;;;;;;14.48;10.05;;;3.10;99.90;;;;;;4990752;28;20084;-58
2021/12/26 12:13:26;;;;;;;13.13;8.25;;;3.00;99.90;;;;;;4990526;28;20027;-59
2021/12/26 12:16:03;;;;;;;14.52;9.27;;;3.00;99.90;;;;;;4990585;28;20027;-56
2021/12/26 12:18:35;;;;;;;15.68;8.48;;;3.00;99.90;;;;;;4990822;28;20033;-57
2021/12/26 12:21:29;;;;;;;15.57;8.25;;;3.00;99.90;;;;;;4990844;28;20042;-58
2021/12/26 12:24:03;;;;;;;13.23;8.65;;;3.00;99.90;;;;;;4990643;28;20639;-57
2021/12/26 12:26:57;;;;;;;13.73;8.93;;;3.10;99.90;;;;;;4990563;28;20038;-54
2021/12/26 12:29:28;;;;;;;16.10;9.40;;;3.10;99.90;;;;;;4990783;28;20121;-54
2021/12/26 12:32:06;;;;;;;15.25;8.43;;;3.20;99.90;;;;;;4990791;28;20068;-57
2021/12/26 12:34:52;;;;;;;12.98;7.72;;;3.20;99.90;;;;;;4994002;28;20587;-57
2021/12/26 12:37:27;;;;;;;12.05;8.15;;;3.20;99.90;;;;;;4994121;28;20085;-56
2021/12/26 12:40:20;;;;;;;14.70;10.15;;;3.20;99.90;;;;;;4984659;28;20054;-58
2021/12/26 12:43:00;;;;;;;13.93;8.93;;;3.10;99.90;;;;;;4993596;28;20085;-58
2021/12/26 12:45:27;;;;;;;16.27;8.63;;;3.10;99.90;;;;;;4994132;28;20026;-57
2021/12/26 12:48:25;;;;;;;11.50;7.47;;;3.10;99.90;;;;;;4994065;28;20034;-59
2021/12/26 12:50:53;;;;;;;13.18;7.88;;;3.10;99.90;;;;;;4994136;28;20392;-59
2021/12/26 12:53:45;;;;;;;12.23;8.25;;;3.20;99.90;;;;;;4993906;28;20054;-58
2021/12/26 12:56:33;;;;;;;13.25;7.30;;;3.30;99.90;;;;;;4994842;28;20034;-59
2021/12/26 12:59:17;;;;;;;12.25;7.90;;;3.50;99.90;;;;;;4993911;28;20326;-56
2021/12/26 13:01:46;;;;;;;14.52;8.30;;;3.50;99.90;;;;;;4993972;28;20030;-58
2021/12/26 13:04:16;;;;;;;11.75;7.85;;;3.40;99.90;;;;;;4993625;28;20121;-58